Time;durP1;ratioP1;P1;durP2;ratioP2;P2;SDS_P1;SDS_P2;PMS_P1;PMS_P2;Temp;Humidity;BMP_temperature;BMP_pressure;BME280_temperature;BME280_humidity;BME280_pressure;Samples;Min_cycle;Max_cycle;Signal;HPM_P1;HPM_P2
2022/09/07 00:02:18;;;;;;;7.07;3.58;;;;;;;19.53;98.00;101410.19;5083360;28;20040;-70
2022/09/07 00:04:43;;;;;;;10.57;3.40;;;;;;;19.43;98.25;101404.56;5083924;28;20509;-70
2022/09/07 00:07:09;;;;;;;9.57;3.47;;;;;;;19.27;98.53;101401.97;5070993;28;20043;-74
2022/09/07 00:09:34;;;;;;;5.38;2.80;;;;;;;19.44;97.41;101402.72;5063735;28;20032;-70
2022/09/07 00:12:00;;;;;;;9.40;2.70;;;;;;;19.43;96.79;101399.22;5063204;28;20033;-70
2022/09/07 00:14:25;;;;;;;4.75;2.60;;;;;;;19.36;96.87;101394.34;5063331;28;20016;-71
2022/09/07 00:16:50;;;;;;;5.47;2.78;;;;;;;19.44;96.63;101381.34;5064440;28;20032;-70
2022/09/07 00:19:16;;;;;;;5.45;2.60;;;;;;;19.45;96.71;101375.91;5068074;28;20037;-70
2022/09/07 00:21:41;;;;;;;7.85;2.83;;;;;;;19.45;96.47;101359.03;5083487;28;20039;-69
2022/09/07 00:24:06;;;;;;;5.63;2.90;;;;;;;19.61;97.47;101347.34;5080818;28;20067;-67
2022/09/07 00:26:32;;;;;;;7.28;2.65;;;;;;;19.40;97.92;101335.28;5062895;28;20020;-70
2022/09/07 00:29:00;;;;;;;7.18;2.85;;;;;;;19.35;97.95;101332.03;5062406;28;20033;-69
2022/09/07 00:31:25;;;;;;;7.25;3.30;;;;;;;19.29;98.54;101321.72;5063758;28;20115;-69
2022/09/07 00:33:52;;;;;;;6.70;3.45;;;;;;;19.31;97.96;101319.81;5063957;28;20032;-69
2022/09/07 00:36:18;;;;;;;4.82;2.67;;;;;;;19.24;98.14;101326.53;5063825;28;20031;-67
2022/09/07 00:38:44;;;;;;;8.00;3.00;;;;;;;19.36;96.65;101320.41;5078125;28;20040;-68
2022/09/07 00:41:10;;;;;;;7.85;2.85;;;;;;;19.57;95.98;101304.78;5083242;28;20058;-69
2022/09/07 00:43:41;;;;;;;5.55;2.67;;;;;;;19.44;95.90;101310.06;5082670;28;20020;-68
2022/09/07 00:46:11;;;;;;;7.45;2.40;;;;;;;19.27;96.88;101299.63;5063448;28;20032;-67
2022/09/07 00:48:41;;;;;;;5.03;2.50;;;;;;;19.16;98.00;101306.50;5062942;28;20028;-66
2022/09/07 00:51:09;;;;;;;5.30;2.92;;;;;;;19.09;97.95;101309.66;5063156;28;20108;-68
2022/09/07 00:53:44;;;;;;;6.30;2.80;;;;;;;19.14;97.04;101310.22;5063454;28;20020;-68
2022/09/07 00:56:10;;;;;;;5.10;2.60;;;;;;;19.34;95.59;101319.63;5045649;28;20386;-68
2022/09/07 00:58:38;;;;;;;6.68;2.25;;;;;;;19.43;95.00;101323.53;5058737;28;20024;-68
2022/09/07 01:01:03;;;;;;;5.82;2.50;;;;;;;19.35;95.60;101334.69;5066954;28;20063;-69
2022/09/07 01:03:33;;;;;;;6.28;2.22;;;;;;;19.39;95.22;101338.88;5068449;28;20470;-67
2022/09/07 01:06:10;;;;;;;5.93;2.60;;;;;;;19.41;95.77;101338.78;5069095;28;20085;-69
2022/09/07 01:08:36;;;;;;;4.13;2.60;;;;;;;19.37;95.01;101335.47;5068953;28;20492;-69
2022/09/07 01:11:01;;;;;;;6.72;3.13;;;;;;;19.41;95.61;101328.97;5086262;28;20028;-68
2022/09/07 01:13:27;;;;;;;3.40;2.50;;;;;;;19.45;95.34;101326.97;5065126;28;20028;-68
2022/09/07 01:16:06;;;;;;;6.68;2.85;;;;;;;19.59;94.50;101331.41;5066454;28;20033;-69
2022/09/07 01:19:02;;;;;;;4.80;3.00;;;;;;;19.50;95.29;101340.88;5048117;28;20025;-68
2022/09/07 01:21:46;;;;;;;8.07;3.22;;;;;;;19.42;95.84;101344.03;5066519;28;20031;-68
2022/09/07 01:24:28;;;;;;;6.20;3.63;;;;;;;19.43;95.90;101348.44;5048910;28;20082;-69
2022/09/07 01:27:05;;;;;;;7.22;3.60;;;;;;;19.40;96.24;101353.97;5071415;28;20020;-69
2022/09/07 01:29:33;;;;;;;6.97;3.42;;;;;;;19.45;95.87;101354.53;5086661;28;20052;-68
2022/09/07 01:32:20;;;;;;;7.05;3.90;;;;;;;19.38;96.35;101355.88;5086110;28;20024;-68
2022/09/07 01:34:51;;;;;;;5.47;3.25;;;;;;;19.34;97.04;101364.19;5068565;28;20047;-68
2022/09/07 01:37:31;;;;;;;7.30;3.30;;;;;;;19.45;96.46;101359.88;5081005;28;20021;-68
2022/09/07 01:40:11;;;;;;;6.78;2.97;;;;;;;19.43;96.21;101361.81;5047630;28;20444;-67
2022/09/07 01:42:44;;;;;;;6.38;3.00;;;;;;;19.30;96.87;101359.03;5046648;28;20029;-68
2022/09/07 01:45:11;;;;;;;7.72;3.10;;;;;;;19.35;nan;101358.75;5048895;28;20035;-67
2022/09/07 01:47:46;;;;;;;9.70;3.28;;;;;;;19.36;96.12;101355.13;5048342;28;20580;-67
2022/09/07 01:50:19;;;;;;;5.15;3.05;;;;;;;19.38;96.18;101355.88;5052096;28;20112;-68
2022/09/07 01:53:16;;;;;;;5.30;3.35;;;;;;;19.38;96.56;101350.53;5067034;28;20028;-66
2022/09/07 01:55:45;;;;;;;4.93;2.95;;;;;;;19.39;96.37;101344.22;5085437;28;20028;-67
2022/09/07 01:58:20;;;;;;;3.83;2.70;;;;;;;19.49;95.90;101343.66;5067618;28;20052;-67
2022/09/07 02:00:51;;;;;;;3.90;3.00;;;;;;;19.48;95.94;101348.16;5067995;28;20055;-68
2022/09/07 02:03:36;;;;;;;5.65;2.80;;;;;;;19.31;97.08;101346.53;5054381;28;20068;-68
2022/09/07 02:06:17;;;;;;;9.63;3.03;;;;;;;19.28;96.75;101349.41;5065037;28;20132;-69
2022/09/07 02:08:54;;;;;;;7.70;2.53;;;;;;;19.36;97.11;101351.59;5047052;28;20478;-68
2022/09/07 02:11:23;;;;;;;4.28;2.40;;;;;;;19.31;96.81;101352.75;5047535;28;20031;-67
2022/09/07 02:14:17;;;;;;;4.10;2.25;;;;;;;19.45;95.43;101346.53;5064530;28;20393;-68
2022/09/07 02:16:52;;;;;;;5.07;2.25;;;;;;;19.54;95.29;101347.75;5046690;28;20475;-67
2022/09/07 02:19:18;;;;;;;3.03;2.30;;;;;;;19.57;94.87;101344.03;5065805;28;20024;-66
2022/09/07 02:21:47;;;;;;;3.60;2.15;;;;;;;19.52;95.46;101344.31;5076836;28;20032;-66
2022/09/07 02:24:34;;;;;;;;;;;;;;;19.59;95.43;101343.94;5067698;28;20019;-66
2022/09/07 02:27:02;;;;;;;5.15;2.53;;;;;;;19.54;95.57;101336.22;5066541;28;19919;-67
2022/09/07 02:29:28;;;;;;;5.30;2.40;;;;;;;19.59;94.96;101342.09;5082205;28;20032;-67
2022/09/07 02:31:53;;;;;;;8.73;2.50;;;;;;;19.51;95.94;101342.59;5046752;28;20035;-64
2022/09/07 02:34:19;;;;;;;2.78;2.08;;;;;;;19.39;96.58;101349.56;5065132;28;20025;-66
2022/09/07 02:36:47;;;;;;;5.60;2.17;;;;;;;19.37;96.88;101355.97;5064858;28;20024;-66
2022/09/07 02:39:12;;;;;;;3.33;2.20;;;;;;;19.48;96.91;101358.84;5047781;28;20402;-68
2022/09/07 02:41:40;;;;;;;4.35;1.80;;;;;;;19.58;96.59;101367.13;5065501;28;20024;-66
2022/09/07 02:44:18;;;;;;;5.53;2.23;;;;;;;19.60;96.29;101362.56;5065431;28;20070;-67
2022/09/07 02:46:52;;;;;;;5.38;2.08;;;;;;;19.57;96.59;101344.88;5085264;28;20426;-65
2022/09/07 02:49:50;;;;;;;4.85;2.20;;;;;;;19.56;96.26;101345.84;5083072;28;20700;-66
2022/09/07 02:52:34;;;;;;;3.20;2.10;;;;;;;19.58;95.79;101343.06;5066585;28;20123;-66
2022/09/07 02:55:17;;;;;;;4.50;2.25;;;;;;;19.36;96.60;101351.59;5063815;28;20036;-67
2022/09/07 02:58:18;;;;;;;4.28;2.03;;;;;;;19.40;96.75;101347.78;5062864;28;20845;-68
2022/09/07 03:01:08;;;;;;;3.35;2.20;;;;;;;19.37;96.25;101346.16;5042176;28;20049;-66
2022/09/07 03:03:48;;;;;;;3.22;1.95;;;;;;;19.14;96.47;101353.81;5027126;28;20024;-66
2022/09/07 03:06:41;;;;;;;2.97;2.17;;;;;;;19.20;96.01;101349.88;5064153;28;20050;-67
2022/09/07 03:09:11;;;;;;;3.00;2.22;;;;;;;19.14;96.21;101348.47;5063921;28;20070;-68
2022/09/07 03:11:37;;;;;;;2.47;1.85;;;;;;;19.04;96.59;101355.28;5046848;28;20127;-68
2022/09/07 03:14:16;;;;;;;6.65;2.00;;;;;;;19.02;96.25;101347.38;5084770;28;20116;-67
2022/09/07 03:16:42;;;;;;;3.30;2.15;;;;;;;18.91;96.96;101345.34;5084119;28;20062;-67
2022/09/07 03:19:07;;;;;;;4.78;2.50;;;;;;;18.86;96.60;101339.47;5085072;28;20066;-68
2022/09/07 03:21:32;;;;;;;4.97;2.20;;;;;;;18.88;96.20;101334.03;5084627;28;20020;-68
2022/09/07 03:23:58;;;;;;;4.28;2.33;;;;;;;18.76;97.47;101325.81;5078875;28;20601;-67
2022/09/07 03:26:26;;;;;;;3.25;2.40;;;;;;;18.77;97.00;101326.66;5064579;28;20449;-64
2022/09/07 03:28:52;;;;;;;2.90;2.35;;;;;;;18.68;97.00;101323.63;5063365;28;20033;-67
2022/09/07 03:31:18;;;;;;;3.83;2.55;;;;;;;18.73;97.19;101319.81;5064373;28;20503;-67
2022/09/07 03:33:43;;;;;;;2.97;2.67;;;;;;;18.65;97.05;101313.13;5064344;28;20036;-68
2022/09/07 03:36:08;;;;;;;3.88;2.67;;;;;;;18.60;97.85;101319.69;5066704;28;20051;-67
2022/09/07 03:38:34;;;;;;;6.70;3.30;;;;;;;18.56;98.02;101309.22;5084385;28;20497;-67
2022/09/07 03:41:06;;;;;;;4.05;3.05;;;;;;;18.55;98.27;101303.97;5083425;28;20028;-68
2022/09/07 03:43:32;;;;;;;3.35;3.05;;;;;;;18.56;98.02;101301.19;5083744;28;20024;-67
2022/09/07 03:46:03;;;;;;;5.85;3.00;;;;;;;18.57;97.63;101299.38;5084780;28;20028;-66
2022/09/07 03:48:29;;;;;;;7.03;3.60;;;;;;;18.51;97.88;101302.44;5083224;28;20031;-66
2022/09/07 03:51:03;;;;;;;3.80;3.25;;;;;;;18.52;98.06;101299.69;5086497;28;20028;-65
2022/09/07 03:53:31;;;;;;;5.88;3.35;;;;;;;18.43;98.67;101309.06;5103684;28;20489;-68
2022/09/07 03:56:10;;;;;;;5.72;3.45;;;;;;;18.43;98.47;101301.06;5104480;28;20023;-66
2022/09/07 03:58:36;;;;;;;5.95;3.60;;;;;;;18.41;98.35;101311.00;5103404;28;20110;-66
2022/09/07 04:01:09;;;;;;;9.27;3.65;;;;;;;18.32;99.20;101311.53;5090761;28;20588;-65
2022/09/07 04:03:35;;;;;;;4.65;3.13;;;;;;;18.31;98.67;101317.81;5062800;28;20425;-67
2022/09/07 04:06:01;;;;;;;6.90;3.03;;;;;;;18.32;98.61;101316.88;5064127;28;20037;-67
2022/09/07 04:08:28;;;;;;;6.40;2.95;;;;;;;18.32;98.74;101322.19;5076929;28;20475;-68
2022/09/07 04:10:58;;;;;;;4.35;3.17;;;;;;;18.35;98.80;101330.03;5063223;28;20475;-66
2022/09/07 04:13:27;;;;;;;3.88;3.33;;;;;;;18.35;98.54;101331.81;5077094;28;20017;-67
2022/09/07 04:15:53;;;;;;;4.65;3.33;;;;;;;18.30;99.22;101318.75;5063964;28;20023;-67
2022/09/07 04:18:18;;;;;;;4.28;3.05;;;;;;;18.29;98.52;101327.72;5063254;28;20099;-65
2022/09/07 04:20:44;;;;;;;4.90;2.85;;;;;;;18.23;98.77;101322.75;5054275;28;20028;-67
2022/09/07 04:23:10;;;;;;;4.60;3.33;;;;;;;18.23;98.76;101322.75;5067952;28;20304;-67
2022/09/07 04:25:35;;;;;;;6.15;2.95;;;;;;;18.16;98.77;101328.47;5044471;28;20048;-66
2022/09/07 04:28:01;;;;;;;4.10;2.95;;;;;;;18.16;99.33;101317.78;5076798;28;20042;-66
2022/09/07 04:30:26;;;;;;;5.68;3.20;;;;;;;18.18;99.16;101323.88;5077174;28;20028;-67
2022/09/07 04:32:51;;;;;;;4.22;3.65;;;;;;;18.21;99.06;101330.00;5063088;28;20120;-66
2022/09/07 04:35:17;;;;;;;3.95;3.10;;;;;;;18.20;99.26;101323.78;5063696;28;20059;-66
2022/09/07 04:37:43;;;;;;;5.97;3.53;;;;;;;18.21;99.41;101320.16;5074878;28;20615;-66
2022/09/07 04:40:09;;;;;;;6.10;3.65;;;;;;;18.17;99.00;101321.28;5054510;28;20071;-65
2022/09/07 04:42:34;;;;;;;3.40;3.10;;;;;;;18.21;98.94;101317.50;5066387;28;20040;-64
2022/09/07 04:44:59;;;;;;;4.30;3.25;;;;;;;18.17;98.90;101314.16;5066846;28;20016;-67
2022/09/07 04:47:25;;;;;;;5.63;3.58;;;;;;;18.11;98.67;101311.84;5066608;28;20009;-67
2022/09/07 04:49:51;;;;;;;5.03;2.95;;;;;;;18.11;98.81;101318.97;5066346;28;20132;-67
2022/09/07 04:52:16;;;;;;;4.78;3.47;;;;;;;18.04;99.41;101324.66;5068256;28;20032;-67
2022/09/07 04:54:42;;;;;;;5.97;3.45;;;;;;;18.11;98.99;101322.53;5078071;28;20462;-66
2022/09/07 04:57:09;;;;;;;4.63;4.10;;;;;;;18.09;99.13;101305.69;5072243;28;20109;-66
2022/09/07 04:59:34;;;;;;;4.90;4.40;;;;;;;18.13;99.69;101311.75;5048247;28;20056;-65
2022/09/07 05:01:59;;;;;;;5.70;3.65;;;;;;;18.09;98.91;101311.03;5062234;28;20051;-66
2022/09/07 05:04:25;;;;;;;5.90;3.90;;;;;;;18.11;99.07;101311.84;5086340;28;20465;-65
2022/09/07 05:06:52;;;;;;;7.07;4.25;;;;;;;18.04;99.28;101305.13;5085896;28;20542;-66
2022/09/07 05:09:17;;;;;;;7.25;4.95;;;;;;;18.05;98.92;101304.16;5080603;28;20032;-65
2022/09/07 05:11:42;;;;;;;7.93;5.40;;;;;;;18.05;99.49;101298.84;5083676;28;20035;-65
2022/09/07 05:14:09;;;;;;;7.82;6.20;;;;;;;18.06;99.39;101297.88;5085533;28;20103;-65
2022/09/07 05:16:34;;;;;;;11.70;7.97;;;;;;;18.04;99.40;101297.13;5086037;28;20024;-65
2022/09/07 05:19:02;;;;;;;11.80;6.38;;;;;;;17.94;99.46;101302.13;5086321;28;20028;-64
2022/09/07 05:21:29;;;;;;;12.48;7.50;;;;;;;17.93;99.64;101314.63;5067771;28;20031;-65
2022/09/07 05:23:56;;;;;;;10.25;6.78;;;;;;;18.00;99.65;101312.44;5085606;28;20035;-64
2022/09/07 05:26:23;;;;;;;10.05;8.00;;;;;;;18.15;99.82;101304.53;5085315;28;20474;-65
2022/09/07 05:28:48;;;;;;;11.88;7.68;;;;;;;18.24;99.36;101306.66;5086126;28;20032;-64
2022/09/07 05:31:16;;;;;;;12.45;8.13;;;;;;;18.27;99.08;101300.28;5086420;28;20027;-65
2022/09/07 05:33:52;;;;;;;12.00;8.23;;;;;;;18.21;99.65;101308.66;5085081;28;20036;-63
2022/09/07 05:36:19;;;;;;;10.77;7.93;;;;;;;18.24;98.95;101301.31;5067470;28;20029;-64
2022/09/07 05:38:45;;;;;;;10.80;7.40;;;;;;;18.15;99.46;101315.22;5065013;28;20031;-65
2022/09/07 05:41:11;;;;;;;16.17;7.72;;;;;;;18.10;99.22;101307.47;5064576;28;20032;-65
2022/09/07 05:43:36;;;;;;;14.30;8.00;;;;;;;18.09;99.22;101315.53;5065532;28;20035;-64
2022/09/07 05:46:02;;;;;;;11.25;7.72;;;;;;;18.09;99.52;101321.69;5065649;28;20020;-65
2022/09/07 05:48:28;;;;;;;10.82;7.40;;;;;;;18.08;99.37;101325.31;5065116;28;20036;-64
2022/09/07 05:50:53;;;;;;;14.57;8.90;;;;;;;18.05;99.82;101330.84;5065651;28;20020;-65
2022/09/07 05:53:19;;;;;;;16.50;7.85;;;;;;;18.11;99.76;101327.84;5065551;28;20016;-65
2022/09/07 05:55:45;;;;;;;9.05;7.45;;;;;;;18.15;99.68;101334.72;5065045;28;20017;-65
2022/09/07 05:58:11;;;;;;;11.23;8.00;;;;;;;18.24;99.89;101335.16;5064808;28;20478;-65
2022/09/07 06:00:36;;;;;;;10.07;8.65;;;;;;;18.23;99.49;101333.41;5046281;28;20040;-65
2022/09/07 06:03:02;;;;;;;11.18;7.65;;;;;;;18.31;99.43;101334.66;5047104;28;20474;-64
2022/09/07 06:05:27;;;;;;;10.60;7.57;;;;;;;18.36;99.67;101334.41;5082705;28;20043;-65
2022/09/07 06:07:52;;;;;;;9.55;6.72;;;;;;;18.48;99.34;101326.63;5086425;28;20032;-66
2022/09/07 06:10:18;;;;;;;11.18;7.35;;;;;;;18.50;99.64;101330.06;5065476;28;20100;-64
2022/09/07 06:12:44;;;;;;;14.25;7.53;;;;;;;18.49;99.72;101333.69;5063528;28;20025;-65
2022/09/07 06:15:10;;;;;;;8.95;6.43;;;;;;;18.57;99.61;101336.72;5065413;28;20367;-65
2022/09/07 06:17:35;;;;;;;9.02;6.05;;;;;;;18.61;99.45;101335.63;5065341;28;20028;-65
2022/09/07 06:20:02;;;;;;;19.17;7.15;;;;;;;18.62;99.49;101347.13;5074579;28;20024;-63
2022/09/07 06:22:27;;;;;;;14.35;6.25;;;;;;;18.67;99.30;101348.56;5085008;28;20149;-66
2022/09/07 06:24:52;;;;;;;11.15;7.40;;;;;;;18.74;99.50;101351.75;5084389;28;20031;-65
2022/09/07 06:27:18;;;;;;;10.93;7.13;;;;;;;18.85;98.98;101345.75;5084750;28;20023;-65
2022/09/07 06:29:43;;;;;;;13.00;7.88;;;;;;;19.02;97.88;101346.53;5085492;28;20051;-66
2022/09/07 06:32:08;;;;;;;10.82;7.30;;;;;;;19.04;98.13;101342.81;5080351;28;20035;-66
2022/09/07 06:34:33;;;;;;;15.13;6.88;;;;;;;19.19;97.04;101345.50;5088927;28;20231;-64
2022/09/07 06:36:59;;;;;;;9.30;6.80;;;;;;;19.20;97.32;101349.88;5103515;28;20027;-65
2022/09/07 06:39:24;;;;;;;9.90;7.47;;;;;;;19.25;97.22;101352.28;5105409;28;20015;-65
2022/09/07 06:41:49;;;;;;;13.88;8.10;;;;;;;19.34;97.04;101361.50;5091371;28;20571;-66
2022/09/07 06:44:15;;;;;;;11.77;7.65;;;;;;;19.41;96.74;101363.72;5087261;28;20019;-64
2022/09/07 06:46:40;;;;;;;9.02;7.65;;;;;;;19.52;nan;101357.69;5105034;28;20098;-66
2022/09/07 06:49:05;;;;;;;15.27;8.90;;;;;;;19.49;96.32;101359.69;5105149;28;20497;-67
2022/09/07 06:51:31;;;;;;;11.70;8.45;;;;;;;19.62;95.33;101360.63;5104788;28;20055;-68
2022/09/07 06:53:57;;;;;;;12.40;8.63;;;;;;;19.73;95.03;101351.03;5047022;28;20028;-66
2022/09/07 06:56:23;;;;;;;15.43;11.20;;;;;;;19.86;93.79;101351.97;5046460;28;20059;-67
2022/09/07 06:58:55;;;;;;;20.73;12.30;;;;;;;19.95;93.32;101362.06;5064452;28;20047;-67
2022/09/07 07:01:22;;;;;;;15.98;10.38;;;;;;;20.17;92.93;101366.00;5065048;28;20063;-67
2022/09/07 07:03:48;;;;;;;18.00;11.68;;;;;;;20.23;92.34;101369.25;5046083;28;20029;-66
2022/09/07 07:06:13;;;;;;;12.73;9.75;;;;;;;20.44;92.12;101370.47;5084470;28;20561;-65
2022/09/07 07:08:39;;;;;;;12.35;9.40;;;;;;;20.43;90.53;101382.16;5083539;28;20051;-67
2022/09/07 07:11:09;;;;;;;12.55;9.75;;;;;;;20.65;89.42;101375.31;5083398;28;20040;-67
2022/09/07 07:13:35;;;;;;;15.00;9.05;;;;;;;20.71;89.54;101385.63;5081114;28;20027;-61
2022/09/07 07:16:04;;;;;;;13.75;9.13;;;;;;;20.79;89.10;101389.59;5064047;28;20028;-67
2022/09/07 07:18:30;;;;;;;13.35;9.00;;;;;;;20.71;88.67;101382.09;5055178;28;20034;-68
2022/09/07 07:20:56;;;;;;;9.77;8.15;;;;;;;20.84;88.08;101390.13;5083544;28;20030;-68
2022/09/07 07:23:21;;;;;;;11.43;7.95;;;;;;;20.96;87.10;101383.94;5083388;28;20016;-68
2022/09/07 07:25:46;;;;;;;11.95;7.60;;;;;;;20.96;87.36;101393.81;5065683;28;20022;-66
2022/09/07 07:28:12;;;;;;;11.60;7.80;;;;;;;20.92;87.14;101381.59;5083169;28;20355;-66
2022/09/07 07:30:38;;;;;;;9.55;6.75;;;;;;;20.98;87.16;101380.31;5071578;28;20150;-66
2022/09/07 07:35:47;;;;;;;9.85;7.70;;;;;;;21.02;87.43;101377.31;5063399;28;20564;-64
2022/09/07 07:38:12;;;;;;;9.18;7.57;;;;;;;21.01;87.44;101377.44;5063854;28;20079;-64
2022/09/07 07:40:38;;;;;;;9.00;6.75;;;;;;;20.94;87.61;101393.06;5046043;28;20074;-65
2022/09/07 07:43:03;;;;;;;9.30;6.03;;;;;;;20.93;87.38;101392.22;5062728;28;20032;-66
2022/09/07 07:45:28;;;;;;;11.35;8.15;;;;;;;20.97;86.70;101400.88;5062981;28;20326;-67
2022/09/07 07:47:54;;;;;;;10.05;6.25;;;;;;;20.89;87.03;101401.38;5062823;28;20039;-62
2022/09/07 07:50:20;;;;;;;8.60;6.57;;;;;;;20.80;87.67;101404.72;5063910;28;20027;-67
2022/09/07 07:52:45;;;;;;;9.52;8.38;;;;;;;20.91;86.74;101398.63;5066834;28;20101;-65
2022/09/07 07:55:10;;;;;;;9.50;7.68;;;;;;;20.89;85.89;101400.53;5045164;28;20070;-67
2022/09/07 07:57:36;;;;;;;9.55;7.38;;;;;;;20.83;86.79;101399.97;5075526;28;20107;-64
2022/09/07 08:00:02;;;;;;;10.55;8.80;;;;;;;20.77;86.16;101402.25;5083697;28;20034;-65
2022/09/07 08:02:27;;;;;;;11.13;8.60;;;;;;;20.95;86.86;101398.31;5082379;28;20039;-64
2022/09/07 08:04:52;;;;;;;9.50;7.47;;;;;;;21.08;86.16;101403.66;5083136;28;20055;-65
2022/09/07 08:07:18;;;;;;;7.85;7.05;;;;;;;21.15;85.83;101405.91;5082940;28;20312;-67
2022/09/07 08:09:45;;;;;;;8.68;7.78;;;;;;;21.19;85.91;101397.56;5078534;28;20114;-64
2022/09/07 08:12:13;;;;;;;9.35;7.43;;;;;;;21.30;85.46;101401.28;5073746;28;20028;-66
2022/09/07 08:14:39;;;;;;;9.63;7.82;;;;;;;21.26;84.70;101402.47;5086306;28;20043;-65
2022/09/07 08:17:06;;;;;;;10.10;8.40;;;;;;;21.28;85.07;101392.53;5088179;28;20103;-66
2022/09/07 08:19:31;;;;;;;8.13;7.32;;;;;;;21.35;85.48;101393.78;5073885;28;20426;-66
2022/09/07 08:21:57;;;;;;;8.70;7.45;;;;;;;21.55;84.81;101387.00;5066954;28;20021;-67
2022/09/07 08:24:22;;;;;;;8.15;7.32;;;;;;;21.58;84.31;101388.59;5066488;28;20024;-67
2022/09/07 08:26:48;;;;;;;9.00;7.35;;;;;;;21.46;84.04;101382.28;5048697;28;20032;-65
2022/09/07 08:29:13;;;;;;;8.77;7.65;;;;;;;21.55;83.56;101383.47;5066429;28;20032;-66
2022/09/07 08:31:39;;;;;;;9.13;7.43;;;;;;;21.63;83.53;101385.56;5067060;28;20024;-66
2022/09/07 08:34:06;;;;;;;9.63;7.30;;;;;;;21.52;83.72;101381.00;5066326;28;20574;-66
2022/09/07 08:36:31;;;;;;;7.55;6.82;;;;;;;21.55;83.92;101388.84;5066093;28;20024;-65
2022/09/07 08:38:57;;;;;;;9.10;7.00;;;;;;;21.60;84.07;101373.25;5066681;28;20112;-66
2022/09/07 08:41:50;;;;;;;10.95;6.90;;;;;;;21.65;83.83;101381.84;5066222;28;20046;-66
2022/09/07 08:44:22;;;;;;;10.07;6.63;;;;;;;21.85;83.36;101382.22;5065511;28;20035;-65
2022/09/07 08:46:57;;;;;;;8.73;6.90;;;;;;;21.84;83.15;101378.69;5066917;28;20078;-66
2022/09/07 08:49:52;;;;;;;7.57;5.72;;;;;;;21.96;82.75;101368.88;5066823;28;20024;-67
2022/09/07 08:52:24;;;;;;;9.85;6.40;;;;;;;21.96;83.05;101373.38;5065885;28;20024;-66
2022/09/07 08:55:16;;;;;;;9.05;6.20;;;;;;;22.12;82.48;101372.25;5049316;28;20112;-69
2022/09/07 08:57:46;;;;;;;9.15;6.57;;;;;;;22.18;81.28;101372.63;5065388;28;20954;-69
2022/09/07 09:00:15;;;;;;;12.43;6.40;;;;;;;22.34;80.56;101380.38;5066755;28;20463;-66
2022/09/07 09:02:40;;;;;;;10.35;6.25;;;;;;;22.33;80.13;101383.16;5064910;28;20090;-65
2022/09/07 09:05:43;;;;;;;7.82;5.47;;;;;;;22.53;79.69;101372.75;5064333;28;20494;-67
2022/09/07 09:08:17;;;;;;;5.47;4.55;;;;;;;22.58;79.97;101370.59;5041940;28;20119;-68
2022/09/07 09:10:52;;;;;;;7.75;5.00;;;;;;;22.41;79.12;101377.22;5051195;28;20602;-65
2022/09/07 09:13:35;;;;;;;8.65;4.63;;;;;;;22.39;78.61;101377.34;5068245;28;20056;-64
2022/09/07 09:16:04;;;;;;;7.60;4.60;;;;;;;22.58;77.13;101375.97;5086061;28;20016;-68
2022/09/07 09:18:45;;;;;;;9.90;4.93;;;;;;;22.61;77.80;101378.44;5068520;28;20020;-68
2022/09/07 09:21:15;;;;;;;7.13;3.88;;;;;;;22.66;77.01;101384.28;5067385;28;20032;-66
2022/09/07 09:23:42;;;;;;;7.95;3.58;;;;;;;22.77;76.24;101379.91;5065771;28;20317;-67
2022/09/07 09:26:20;;;;;;;8.77;3.72;;;;;;;22.79;75.76;101384.19;5065209;28;20059;-69
2022/09/07 09:28:45;;;;;;;5.53;3.47;;;;;;;22.95;76.16;101388.38;5052321;28;20043;-68
2022/09/07 09:31:27;;;;;;;7.50;3.42;;;;;;;23.11;74.78;101379.94;5086151;28;20036;-68
2022/09/07 09:34:08;;;;;;;8.75;3.53;;;;;;;23.27;75.11;101381.44;5086161;28;20047;-67
2022/09/07 09:36:41;;;;;;;7.68;3.30;;;;;;;23.31;74.00;101373.00;5085479;28;20161;-68
2022/09/07 09:39:36;;;;;;;6.75;2.92;;;;;;;23.34;73.74;101377.25;5068609;28;20807;-68
2022/09/07 09:42:10;;;;;;;5.53;3.13;;;;;;;23.43;73.56;101370.31;5038199;28;20079;-67
2022/09/07 09:44:37;;;;;;;10.00;4.07;;;;;;;23.54;72.90;101369.47;5046614;28;20021;-67
2022/09/07 09:47:02;;;;;;;6.50;2.72;;;;;;;23.64;72.95;101377.63;5055878;28;20103;-67
2022/09/07 09:49:34;;;;;;;6.55;2.78;;;;;;;23.71;72.18;101366.25;5085089;28;20111;-67
2022/09/07 09:52:02;;;;;;;6.28;2.35;;;;;;;23.71;71.87;101370.75;5067441;28;20020;-67
2022/09/07 09:54:42;;;;;;;6.65;2.17;;;;;;;23.82;70.95;101361.81;5079381;28;20035;-68
2022/09/07 09:57:15;;;;;;;6.35;2.10;;;;;;;23.89;70.15;101365.69;5103392;28;20080;-67
2022/09/07 09:59:40;;;;;;;6.93;2.20;;;;;;;23.77;69.53;101372.09;5086395;28;20022;-65
2022/09/07 10:02:28;;;;;;;9.48;2.20;;;;;;;23.64;69.02;101370.41;5105010;28;20023;-66
2022/09/07 10:04:54;;;;;;;7.78;2.35;;;;;;;23.75;68.38;101366.81;5078745;28;20039;-65
2022/09/07 10:07:27;;;;;;;5.93;1.83;;;;;;;23.64;68.88;101365.03;5088288;28;20140;-68
2022/09/07 10:09:53;;;;;;;4.53;1.98;;;;;;;23.95;68.58;101361.63;5104996;28;20028;-67
2022/09/07 10:12:26;;;;;;;10.45;2.30;;;;;;;23.96;68.06;101369.59;5105533;28;20049;-67
2022/09/07 10:14:52;;;;;;;9.25;2.45;;;;;;;24.20;67.12;101368.56;5070035;28;20495;-66
2022/09/07 10:17:42;;;;;;;7.45;2.17;;;;;;;24.18;65.21;101365.16;5064295;28;20120;-66
2022/09/07 10:20:20;;;;;;;6.93;1.98;;;;;;;24.15;65.28;101364.53;5045713;28;20142;-67
2022/09/07 10:22:56;;;;;;;10.13;2.00;;;;;;;24.23;65.54;101367.47;5064744;28;20024;-66
2022/09/07 10:25:26;;;;;;;9.18;2.13;;;;;;;24.35;65.35;101360.19;5073810;28;20038;-67
2022/09/07 10:28:11;;;;;;;5.68;2.08;;;;;;;24.48;64.37;101349.22;5085635;28;20042;-65
2022/09/07 10:31:02;;;;;;;8.80;2.30;;;;;;;24.70;63.75;101358.97;5084438;28;20157;-68
2022/09/07 10:33:43;;;;;;;6.95;1.80;;;;;;;24.86;63.78;101357.63;5052201;28;20097;-66
2022/09/07 10:36:30;;;;;;;10.02;2.10;;;;;;;24.90;63.04;101359.13;5085349;28;20067;-69
2022/09/07 10:39:25;;;;;;;12.73;2.85;;;;;;;24.99;63.33;101358.31;5065260;28;20020;-65
2022/09/07 10:42:03;;;;;;;5.55;2.03;;;;;;;25.05;62.88;101366.84;5037533;28;20036;-68
2022/09/07 10:44:50;;;;;;;6.53;2.10;;;;;;;24.94;62.86;101355.16;5030357;28;20032;-71
2022/09/07 10:47:36;;;;;;;8.77;2.30;;;;;;;24.69;63.42;101357.28;5077132;28;20081;-70
2022/09/07 10:50:19;;;;;;;11.00;2.38;;;;;;;24.85;64.35;101356.81;5066911;28;20074;-67
2022/09/07 10:52:57;;;;;;;7.88;2.20;;;;;;;24.90;64.33;101353.75;5066702;28;20028;-67
2022/09/07 10:55:29;;;;;;;6.32;2.00;;;;;;;24.89;64.28;101362.78;5077767;28;20027;-66
2022/09/07 10:58:21;;;;;;;5.57;2.13;;;;;;;24.95;64.15;101359.56;5050695;28;20035;-64
2022/09/07 11:01:21;;;;;;;11.27;2.53;;;;;;;24.97;63.67;101354.91;5098505;28;20508;-66
2022/09/07 11:04:03;;;;;;;6.65;2.00;;;;;;;25.05;63.10;101350.69;5045907;28;20460;-66
2022/09/07 11:06:34;;;;;;;5.20;1.77;;;;;;;25.43;62.38;101348.25;5068019;28;20077;-68
2022/09/07 11:09:30;;;;;;;5.50;2.05;;;;;;;25.40;64.22;101343.13;5085765;28;20059;-67
2022/09/07 11:12:08;;;;;;;8.80;1.80;;;;;;;26.06;60.47;101341.69;5082215;28;20517;-66
2022/09/07 11:15:00;;;;;;;8.32;1.92;;;;;;;26.24;59.83;101341.81;5098014;28;20069;-66
2022/09/07 11:17:29;;;;;;;5.82;2.13;;;;;;;26.42;60.06;101340.25;5085476;28;20147;-69
2022/09/07 11:20:10;;;;;;;12.18;2.72;;;;;;;26.19;60.75;101346.78;5068572;28;20423;-65
2022/09/07 11:22:41;;;;;;;9.07;1.73;;;;;;;26.25;60.74;101331.88;5097113;28;20036;-66
2022/09/07 11:25:24;;;;;;;5.95;2.05;;;;;;;26.24;58.47;101338.25;5084365;28;20439;-67
2022/09/07 11:27:55;;;;;;;5.40;1.80;;;;;;;26.64;57.85;101341.78;5085098;28;20020;-68
2022/09/07 11:30:27;;;;;;;8.95;2.50;;;;;;;26.90;54.97;101334.88;5085938;28;20061;-66
2022/09/07 11:33:22;;;;;;;8.25;2.33;;;;;;;26.45;55.91;101337.25;5079054;28;20106;-68
2022/09/07 11:35:53;;;;;;;7.55;1.63;;;;;;;26.58;54.70;101332.38;5084781;28;20035;-65
2022/09/07 11:38:24;;;;;;;9.00;2.17;;;;;;;26.45;51.98;101334.56;5103356;28;20023;-65
2022/09/07 11:40:56;;;;;;;4.95;1.70;;;;;;;26.51;54.39;101333.13;5103710;28;20525;-65
2022/09/07 11:43:26;;;;;;;6.38;1.80;;;;;;;26.52;55.07;101342.94;5100428;28;20039;-66
2022/09/07 11:45:54;;;;;;;11.57;2.65;;;;;;;26.55;52.58;101332.69;5085907;28;20031;-66